Time;durP1;ratioP1;P1;durP2;ratioP2;P2;SDS_P1;SDS_P2;PMS_P1;PMS_P2;Temp;Humidity;BMP_temperature;BMP_pressure;BME280_temperature;BME280_humidity;BME280_pressure;Samples;Min_cycle;Max_cycle;Signal;HPM_P1;HPM_P2
2022/01/03 00:01:11;;;;;;;3.72;0.52;;;31.40;90.40;;;;;;4968454;28;20046;-74
2022/01/03 00:03:39;;;;;;;1.20;0.35;;;30.90;90.20;;;;;;4964653;28;20426;-73
2022/01/03 00:06:06;;;;;;;4.72;0.70;;;30.80;90.30;;;;;;4971675;28;20039;-74
2022/01/03 00:08:34;;;;;;;3.65;0.60;;;30.60;90.40;;;;;;4962048;28;20102;-75
2022/01/03 00:11:01;;;;;;;1.77;0.80;;;30.80;90.20;;;;;;4962872;28;20093;-74
2022/01/03 00:13:29;;;;;;;1.63;0.77;;;31.40;87.10;;;;;;4970498;28;20027;-76
2022/01/03 00:15:56;;;;;;;3.70;0.40;;;31.80;83.80;;;;;;4975060;28;20033;-78
2022/01/03 00:18:24;;;;;;;3.85;0.60;;;32.00;83.90;;;;;;4966295;28;20050;-73
2022/01/03 00:20:58;;;;;;;4.22;1.25;;;32.40;84.50;;;;;;4970278;28;20026;-73
2022/01/03 00:23:32;;;;;;;4.45;0.50;;;32.20;81.90;;;;;;4969991;28;20077;-74
2022/01/03 00:26:07;;;;;;;5.15;0.60;;;32.50;83.10;;;;;;4972341;28;20034;-74
2022/01/03 00:28:36;;;;;;;3.95;0.63;;;32.80;82.60;;;;;;4962301;28;20534;-74
2022/01/03 00:31:06;;;;;;;2.90;1.17;;;33.30;84.30;;;;;;4969664;28;22579;-74
2022/01/03 00:33:34;;;;;;;4.35;0.65;;;33.60;81.40;;;;;;4971004;28;20027;-74
2022/01/03 00:36:04;;;;;;;4.88;1.00;;;33.80;82.70;;;;;;4972383;28;20030;-74
2022/01/03 00:38:33;;;;;;;4.38;0.45;;;33.90;84.80;;;;;;4966046;28;20530;-72
2022/01/03 00:41:02;;;;;;;3.80;0.60;;;34.10;80.60;;;;;;4963238;28;20110;-73
2022/01/03 00:43:31;;;;;;;4.88;0.75;;;34.40;82.50;;;;;;4961922;28;20023;-72
2022/01/03 00:46:00;;;;;;;5.22;0.60;;;34.50;78.50;;;;;;4962071;28;20771;-74
2022/01/03 00:48:27;;;;;;;3.33;0.73;;;34.10;79.80;;;;;;4964918;28;20037;-73
2022/01/03 00:50:54;;;;;;;3.00;0.60;;;34.20;81.80;;;;;;4967801;28;20050;-73
2022/01/03 00:53:22;;;;;;;1.98;0.50;;;34.40;78.60;;;;;;4968814;28;20525;-75
2022/01/03 00:56:13;;;;;;;3.35;0.50;;;34.40;78.90;;;;;;4970943;28;20385;-74
2022/01/03 00:58:53;;;;;;;4.18;0.60;;;34.50;77.00;;;;;;4958384;28;20027;-72
2022/01/03 01:01:25;;;;;;;2.08;0.45;;;34.40;75.90;;;;;;4961642;28;20047;-72
2022/01/03 01:03:57;;;;;;;3.42;0.30;;;34.40;77.40;;;;;;4968026;28;20046;-74
2022/01/03 01:06:26;;;;;;;3.00;0.75;;;34.60;77.90;;;;;;4971712;28;20034;-74
2022/01/03 01:08:57;;;;;;;2.30;0.60;;;34.70;76.60;;;;;;4964488;28;20037;-74
2022/01/03 01:11:30;;;;;;;5.07;0.65;;;34.80;76.00;;;;;;4975723;28;20037;-75
2022/01/03 01:13:58;;;;;;;2.50;0.47;;;34.50;74.50;;;;;;4965002;28;20031;-73
2022/01/03 01:16:26;;;;;;;1.38;0.80;;;33.70;75.80;;;;;;4962878;28;20027;-74
2022/01/03 01:18:54;;;;;;;2.08;0.30;;;33.00;76.90;;;;;;4961170;28;20536;-74
2022/01/03 01:21:26;;;;;;;5.88;1.10;;;32.60;78.40;;;;;;4969473;28;20038;-75
2022/01/03 01:23:56;;;;;;;2.03;0.30;;;33.00;79.30;;;;;;4967679;28;20067;-72
2022/01/03 01:29:11;;;;;;;3.50;0.82;;;34.20;76.00;;;;;;4971747;28;20108;-74
2022/01/03 01:31:51;;;;;;;2.00;0.38;;;33.80;75.80;;;;;;4979806;28;20057;-72
2022/01/03 01:34:27;;;;;;;2.67;0.50;;;33.10;77.20;;;;;;4967099;28;20033;-73
2022/01/03 01:36:57;;;;;;;2.88;0.50;;;32.60;77.90;;;;;;4963494;28;20039;-74
2022/01/03 01:39:27;;;;;;;2.50;0.50;;;32.00;78.10;;;;;;4970093;28;20030;-74
2022/01/03 01:42:03;;;;;;;4.57;0.63;;;31.80;78.40;;;;;;4967848;28;20178;-76
2022/01/03 01:44:33;;;;;;;2.28;0.50;;;31.80;79.00;;;;;;4964218;28;20024;-74
2022/01/03 01:47:05;;;;;;;4.40;0.90;;;32.60;81.30;;;;;;4971441;28;20236;-75
2022/01/03 01:49:39;;;;;;;3.03;0.55;;;33.40;80.20;;;;;;4969957;28;20029;-74
2022/01/03 01:52:20;;;;;;;6.28;0.93;;;33.60;76.50;;;;;;4974787;28;20031;-73
2022/01/03 01:54:59;;;;;;;3.00;0.80;;;33.10;75.30;;;;;;4968846;28;20508;-74
2022/01/03 01:57:48;;;;;;;4.32;0.60;;;32.90;76.30;;;;;;4964668;28;20089;-74
2022/01/03 02:00:17;;;;;;;4.20;0.57;;;33.10;75.60;;;;;;4969552;28;20034;-73
2022/01/03 02:02:44;;;;;;;4.13;0.50;;;33.60;76.90;;;;;;4968513;28;20113;-74
2022/01/03 02:05:35;;;;;;;4.80;0.80;;;33.50;76.10;;;;;;4970593;28;20344;-74
2022/01/03 02:08:06;;;;;;;2.72;0.45;;;33.40;76.40;;;;;;4966827;28;20042;-73
2022/01/03 02:10:41;;;;;;;2.20;0.30;;;33.60;74.30;;;;;;4970393;28;20180;-75
2022/01/03 02:13:08;;;;;;;1.50;0.30;;;33.20;73.20;;;;;;4974761;28;20026;-74
2022/01/03 02:15:37;;;;;;;3.78;0.40;;;32.70;74.40;;;;;;4980752;28;20508;-74
2022/01/03 02:18:06;;;;;;;1.40;0.20;;;32.80;73.70;;;;;;4969799;28;20039;-74
2022/01/03 02:20:34;;;;;;;1.30;0.30;;;33.00;74.00;;;;;;4972197;28;20043;-75
2022/01/03 02:23:02;;;;;;;2.50;0.45;;;33.10;73.40;;;;;;4971695;28;20185;-74
2022/01/03 02:25:30;;;;;;;3.42;0.65;;;33.50;73.70;;;;;;4972726;28;20052;-75
2022/01/03 02:27:59;;;;;;;7.05;0.50;;;33.80;72.30;;;;;;4974841;28;20489;-75
2022/01/03 02:30:29;;;;;;;2.78;0.63;;;33.70;72.60;;;;;;4961384;28;20078;-73
2022/01/03 02:32:57;;;;;;;2.80;0.77;;;33.20;72.80;;;;;;4966394;28;20030;-75
2022/01/03 02:35:24;;;;;;;1.73;0.47;;;33.00;73.70;;;;;;4960088;28;20382;-74
2022/01/03 02:37:54;;;;;;;2.80;0.60;;;33.00;72.60;;;;;;4965977;28;20031;-74
2022/01/03 02:40:22;;;;;;;2.63;0.40;;;32.70;73.70;;;;;;4967857;28;20042;-74
2022/01/03 02:42:51;;;;;;;3.38;0.70;;;32.60;75.00;;;;;;4969887;28;20041;-74
2022/01/03 02:45:21;;;;;;;2.40;0.43;;;33.10;74.10;;;;;;4985719;28;20034;-72
2022/01/03 02:47:57;;;;;;;4.75;0.52;;;33.50;74.70;;;;;;4965012;28;20027;-74
2022/01/03 02:50:27;;;;;;;3.88;0.40;;;33.80;73.20;;;;;;4967657;28;20068;-75
2022/01/03 02:52:55;;;;;;;4.55;1.00;;;34.00;74.00;;;;;;4963707;28;20026;-76
2022/01/03 02:55:23;;;;;;;2.38;0.40;;;33.90;72.70;;;;;;4972424;28;20478;-76
2022/01/03 02:57:55;;;;;;;3.92;0.88;;;34.10;72.30;;;;;;4968898;28;20505;-77
2022/01/03 03:00:31;;;;;;;2.97;0.30;;;34.20;71.90;;;;;;4966846;28;20370;-76
2022/01/03 03:02:58;;;;;;;2.45;0.68;;;34.30;72.60;;;;;;4966139;28;20509;-77
2022/01/03 03:05:26;;;;;;;3.42;0.30;;;34.50;73.60;;;;;;4961305;28;20587;-77
2022/01/03 03:07:54;;;;;;;4.97;0.65;;;34.70;72.70;;;;;;4968821;28;20042;-76
2022/01/03 03:10:24;;;;;;;1.38;0.50;;;34.70;74.20;;;;;;4968056;28;20046;-78
2022/01/03 03:12:52;;;;;;;2.42;0.30;;;34.90;71.30;;;;;;4957391;28;20481;-76
2022/01/03 03:15:20;;;;;;;1.42;0.50;;;34.60;71.00;;;;;;4961553;28;20150;-78
2022/01/03 03:17:48;;;;;;;2.83;0.47;;;34.30;72.20;;;;;;4963055;28;20031;-75
2022/01/03 03:20:19;;;;;;;6.78;0.65;;;34.20;73.00;;;;;;4971423;28;20066;-77
2022/01/03 03:22:51;;;;;;;4.43;0.70;;;33.60;73.70;;;;;;4960573;28;20047;-75
2022/01/03 03:25:21;;;;;;;1.58;0.50;;;33.50;75.00;;;;;;4971959;28;20441;-77
2022/01/03 03:27:52;;;;;;;2.80;0.95;;;33.80;74.50;;;;;;4969964;28;20034;-76
2022/01/03 03:30:29;;;;;;;3.47;0.60;;;34.20;74.90;;;;;;4970925;28;20026;-75
2022/01/03 03:33:01;;;;;;;2.92;0.60;;;34.10;74.60;;;;;;4962482;28;20054;-75
2022/01/03 03:35:29;;;;;;;3.75;0.68;;;34.10;74.10;;;;;;4973271;28;20520;-75
2022/01/03 03:37:57;;;;;;;1.38;0.32;;;34.20;74.80;;;;;;4969076;28;20029;-76
2022/01/03 03:40:24;;;;;;;6.63;0.70;;;33.60;74.30;;;;;;4968391;28;20046;-75
2022/01/03 03:42:52;;;;;;;2.55;0.57;;;33.10;75.20;;;;;;4965508;28;20105;-75
2022/01/03 03:45:20;;;;;;;4.60;0.40;;;33.20;77.20;;;;;;4960736;28;20037;-75
2022/01/03 03:47:48;;;;;;;6.15;1.02;;;33.50;74.30;;;;;;4966947;28;20030;-75
2022/01/03 03:50:15;;;;;;;3.03;0.60;;;33.70;73.50;;;;;;4969119;28;20206;-75
2022/01/03 03:52:43;;;;;;;2.75;0.80;;;33.80;72.70;;;;;;4964011;28;20494;-75
2022/01/03 03:55:10;;;;;;;1.88;0.65;;;33.60;71.40;;;;;;4970537;28;20482;-75
2022/01/03 03:57:38;;;;;;;2.70;0.30;;;33.60;74.00;;;;;;4961306;28;20120;-75
2022/01/03 04:00:08;;;;;;;0.63;0.20;;;33.90;71.50;;;;;;4984388;28;20375;-75
2022/01/03 04:02:36;;;;;;;1.40;0.32;;;33.50;71.40;;;;;;4966273;28;20363;-72
2022/01/03 04:05:04;;;;;;;1.23;0.15;;;32.60;72.90;;;;;;4959514;28;20411;-77
2022/01/03 04:07:31;;;;;;;2.42;0.57;;;32.20;73.30;;;;;;4967112;28;20031;-75
2022/01/03 04:09:59;;;;;;;1.60;0.30;;;32.40;72.60;;;;;;4969541;28;20041;-73
2022/01/03 04:12:27;;;;;;;2.45;0.57;;;32.80;73.60;;;;;;4963932;28;20055;-75
2022/01/03 04:14:54;;;;;;;0.50;0.20;;;33.10;71.70;;;;;;4963777;28;20031;-76
2022/01/03 04:17:21;;;;;;;4.03;0.68;;;33.20;71.00;;;;;;4963290;28;20037;-74
2022/01/03 04:19:49;;;;;;;2.95;0.40;;;33.30;71.60;;;;;;4966570;28;20089;-76
2022/01/03 04:22:16;;;;;;;1.67;0.43;;;33.30;71.30;;;;;;4959479;28;20501;-74
2022/01/03 04:24:44;;;;;;;2.13;0.30;;;33.50;70.40;;;;;;4961244;28;20065;-75
2022/01/03 04:27:11;;;;;;;1.20;0.30;;;33.50;70.10;;;;;;4972477;28;20023;-78
2022/01/03 04:29:38;;;;;;;0.47;0.20;;;33.20;70.80;;;;;;4962600;28;20077;-76
2022/01/03 04:32:06;;;;;;;3.63;0.52;;;33.10;69.50;;;;;;4969619;28;20023;-77
2022/01/03 04:34:33;;;;;;;2.25;0.50;;;33.10;69.90;;;;;;4960375;28;20434;-77
2022/01/03 04:37:01;;;;;;;3.67;0.50;;;32.80;70.60;;;;;;4968889;28;20091;-76
2022/01/03 04:39:32;;;;;;;1.30;0.30;;;32.80;70.50;;;;;;4967494;28;20533;-74
2022/01/03 04:41:59;;;;;;;2.40;0.98;;;32.80;72.10;;;;;;4977255;28;20125;-74
2022/01/03 04:44:27;;;;;;;2.05;0.25;;;32.90;72.50;;;;;;4966538;28;20063;-75
2022/01/03 04:46:55;;;;;;;3.22;0.40;;;33.00;71.80;;;;;;4969734;28;20031;-74
2022/01/03 04:49:22;;;;;;;4.20;0.45;;;32.90;73.70;;;;;;4963042;28;20244;-75
2022/01/03 04:51:50;;;;;;;2.95;0.40;;;32.90;71.70;;;;;;4964385;28;20025;-76
2022/01/03 04:54:17;;;;;;;1.55;0.35;;;33.00;71.30;;;;;;4976844;28;20030;-75
2022/01/03 04:56:45;;;;;;;2.65;0.50;;;32.90;72.00;;;;;;4967256;28;20046;-74
2022/01/03 04:59:12;;;;;;;3.25;0.45;;;32.70;71.60;;;;;;4968751;28;20026;-75
2022/01/03 05:01:39;;;;;;;4.30;0.52;;;32.60;72.00;;;;;;4970831;28;20042;-74
2022/01/03 05:04:07;;;;;;;1.40;0.40;;;32.50;73.00;;;;;;4970268;28;20023;-76
2022/01/03 05:06:34;;;;;;;1.67;0.55;;;32.60;72.30;;;;;;4970173;28;20026;-76
2022/01/03 05:09:01;;;;;;;3.50;0.40;;;32.50;72.40;;;;;;4967801;28;20039;-73
2022/01/03 05:11:29;;;;;;;2.47;0.40;;;32.70;72.40;;;;;;4967671;28;20044;-75
2022/01/03 05:13:56;;;;;;;4.78;0.63;;;32.60;71.70;;;;;;4963852;28;20489;-74
2022/01/03 05:16:23;;;;;;;3.08;0.60;;;32.40;71.20;;;;;;4965952;28;20113;-73
2022/01/03 05:18:50;;;;;;;4.10;0.30;;;32.30;71.20;;;;;;4970190;28;20027;-73
2022/01/03 05:21:19;;;;;;;2.33;0.77;;;32.10;71.40;;;;;;4973518;28;20038;-76
2022/01/03 05:23:47;;;;;;;3.17;0.30;;;32.10;72.60;;;;;;4973292;28;20050;-76
2022/01/03 05:26:16;;;;;;;2.95;0.47;;;32.10;71.50;;;;;;4972681;28;20034;-76
2022/01/03 05:28:45;;;;;;;3.38;0.43;;;32.10;71.20;;;;;;4966999;28;20019;-74
2022/01/03 05:31:13;;;;;;;1.23;0.30;;;32.20;71.10;;;;;;4963887;28;20082;-75
2022/01/03 05:33:40;;;;;;;3.15;0.82;;;32.20;71.50;;;;;;4965289;28;20492;-76
2022/01/03 05:36:08;;;;;;;2.15;0.40;;;32.30;72.40;;;;;;4972426;28;20437;-75
2022/01/03 05:38:35;;;;;;;1.90;0.47;;;32.10;73.00;;;;;;4967975;28;20038;-76
2022/01/03 05:41:03;;;;;;;2.67;0.60;;;31.90;72.50;;;;;;4972481;28;20094;-76
2022/01/03 05:43:30;;;;;;;1.52;0.57;;;31.80;73.30;;;;;;4972432;28;20031;-75
2022/01/03 05:45:58;;;;;;;3.65;0.68;;;31.80;73.10;;;;;;4972379;28;20089;-75
2022/01/03 05:48:25;;;;;;;1.95;0.50;;;31.90;74.50;;;;;;4969767;28;20023;-76
2022/01/03 05:50:52;;;;;;;3.47;0.60;;;31.80;74.60;;;;;;4963941;28;20110;-74
2022/01/03 05:53:20;;;;;;;4.13;0.60;;;31.70;74.70;;;;;;4972446;28;20030;-76
2022/01/03 05:55:49;;;;;;;3.30;0.75;;;31.50;77.00;;;;;;4969019;28;20110;-74
2022/01/03 05:58:17;;;;;;;2.28;0.22;;;31.40;77.40;;;;;;4970471;28;20110;-74
2022/01/03 06:00:46;;;;;;;0.93;0.25;;;31.30;78.00;;;;;;4971500;28;20464;-75
2022/01/03 06:03:14;;;;;;;4.03;0.30;;;31.30;76.40;;;;;;4971513;28;20035;-74
2022/01/03 06:08:25;;;;;;;1.55;0.20;;;31.10;77.30;;;;;;4968281;28;20135;-76
2022/01/03 06:10:52;;;;;;;1.42;0.30;;;31.00;78.40;;;;;;4976918;28;20038;-75
2022/01/03 06:13:20;;;;;;;2.75;0.38;;;31.00;79.30;;;;;;4971991;28;20033;-75
2022/01/03 06:15:48;;;;;;;1.30;0.43;;;31.10;78.70;;;;;;4961878;28;20418;-74
2022/01/03 06:18:17;;;;;;;0.73;0.40;;;31.10;76.20;;;;;;4957534;28;20158;-75
2022/01/03 06:20:46;;;;;;;2.53;0.45;;;31.00;76.10;;;;;;4958332;28;20039;-74
2022/01/03 06:23:16;;;;;;;2.60;0.90;;;30.80;77.70;;;;;;4962367;28;20055;-75
2022/01/03 06:25:43;;;;;;;4.63;0.68;;;30.70;79.10;;;;;;4964499;28;20441;-75
2022/01/03 06:28:11;;;;;;;1.27;0.40;;;30.60;78.80;;;;;;4980587;28;20028;-75
2022/01/03 06:30:41;;;;;;;2.55;0.80;;;30.40;79.00;;;;;;4960934;28;20029;-76
2022/01/03 06:33:11;;;;;;;2.85;0.50;;;30.40;78.90;;;;;;4971840;28;20030;-75
2022/01/03 06:35:38;;;;;;;2.65;0.60;;;30.50;79.60;;;;;;4975408;28;20046;-76
2022/01/03 06:38:06;;;;;;;3.30;1.08;;;30.50;80.00;;;;;;4971462;28;20105;-76
2022/01/03 06:40:34;;;;;;;5.03;0.47;;;30.40;79.80;;;;;;4972294;28;20609;-76
2022/01/03 06:43:02;;;;;;;4.45;1.63;;;30.40;80.60;;;;;;4964950;28;20035;-76
2022/01/03 06:45:29;;;;;;;2.05;0.40;;;30.40;80.90;;;;;;4972680;28;20022;-74
2022/01/03 06:47:57;;;;;;;2.30;0.60;;;30.40;81.40;;;;;;4966650;28;20046;-74
2022/01/03 06:50:28;;;;;;;1.00;0.32;;;30.40;80.80;;;;;;4962935;28;20048;-76
2022/01/03 06:52:55;;;;;;;2.95;0.60;;;30.30;80.50;;;;;;4967918;28;20050;-74
2022/01/03 06:55:23;;;;;;;2.22;0.82;;;30.30;80.60;;;;;;4971155;28;20121;-73
2022/01/03 06:57:51;;;;;;;1.10;0.30;;;30.40;80.70;;;;;;4962043;28;20034;-74
2022/01/03 07:00:19;;;;;;;3.45;0.40;;;30.30;82.10;;;;;;4982444;28;20030;-74
2022/01/03 07:02:47;;;;;;;3.63;0.80;;;30.30;82.20;;;;;;4959901;28;20028;-74
2022/01/03 07:05:15;;;;;;;2.33;0.85;;;30.20;82.90;;;;;;4967313;28;20126;-76
2022/01/03 07:07:42;;;;;;;3.15;0.50;;;30.10;83.80;;;;;;4968146;28;20038;-75
2022/01/03 07:10:11;;;;;;;3.78;0.77;;;30.00;83.90;;;;;;4966542;28;20513;-74
2022/01/03 07:12:39;;;;;;;2.63;0.57;;;29.90;81.00;;;;;;4967097;28;20110;-74
2022/01/03 07:20:39;;;;;;;;;;;29.60;83.10;;;;;;4972752;28;20125;-75
2022/01/03 07:23:07;;;;;;;2.85;1.38;;;29.50;83.10;;;;;;4969534;28;19918;-74
2022/01/03 07:25:34;;;;;;;3.97;0.50;;;29.40;83.60;;;;;;4965915;28;20406;-75
2022/01/03 07:28:01;;;;;;;5.32;0.82;;;29.40;83.70;;;;;;4963084;28;20390;-76
2022/01/03 07:30:29;;;;;;;3.05;0.47;;;29.40;83.30;;;;;;4971688;28;20030;-74
2022/01/03 07:32:56;;;;;;;1.92;0.55;;;29.40;83.30;;;;;;4971352;28;20023;-74
2022/01/03 07:35:24;;;;;;;2.80;0.63;;;29.40;83.60;;;;;;4965041;28;20661;-74
2022/01/03 07:37:53;;;;;;;3.80;0.88;;;29.30;83.80;;;;;;4960024;28;20026;-75
2022/01/03 07:40:21;;;;;;;5.57;0.50;;;29.20;82.80;;;;;;4968141;28;20536;-75
2022/01/03 07:42:49;;;;;;;1.67;0.50;;;29.10;83.20;;;;;;4966812;28;20097;-76
2022/01/03 07:45:16;;;;;;;5.10;1.38;;;29.00;82.80;;;;;;4968088;28;20106;-73
2022/01/03 07:47:47;;;;;;;3.00;0.40;;;29.00;83.00;;;;;;4961633;28;20097;-75
2022/01/03 07:50:15;;;;;;;2.92;0.40;;;29.00;82.60;;;;;;4969398;28;20033;-74
2022/01/03 07:52:42;;;;;;;3.40;0.52;;;28.90;82.70;;;;;;4968106;28;20034;-75
2022/01/03 07:55:12;;;;;;;3.88;0.82;;;28.70;82.60;;;;;;4967810;28;20027;-74
2022/01/03 07:57:40;;;;;;;4.45;0.90;;;28.70;83.00;;;;;;4968458;28;20174;-75
2022/01/03 08:00:14;;;;;;;3.63;0.73;;;28.50;82.80;;;;;;4963343;28;20443;-75
2022/01/03 08:02:43;;;;;;;2.28;0.50;;;28.40;83.30;;;;;;4960236;28;20041;-75
2022/01/03 08:05:13;;;;;;;3.80;0.55;;;28.30;83.50;;;;;;4955707;28;20026;-76
2022/01/03 08:07:42;;;;;;;4.32;0.50;;;28.10;84.00;;;;;;4953836;28;20049;-75
2022/01/03 08:10:11;;;;;;;4.50;1.35;;;28.10;83.80;;;;;;4967996;28;20031;-75
2022/01/03 08:12:39;;;;;;;1.40;0.47;;;28.00;84.00;;;;;;4963859;28;20019;-74
2022/01/03 08:15:08;;;;;;;1.80;0.50;;;27.90;84.20;;;;;;4971580;28;20482;-75
2022/01/03 08:17:36;;;;;;;2.92;0.40;;;28.00;84.60;;;;;;4968639;28;20081;-74
2022/01/03 08:20:05;;;;;;;1.70;0.40;;;27.90;84.50;;;;;;4957107;28;20064;-75
2022/01/03 08:22:32;;;;;;;3.15;0.50;;;27.80;83.60;;;;;;4966987;28;20045;-75
2022/01/03 08:24:59;;;;;;;2.55;0.63;;;27.60;83.60;;;;;;4971068;28;20058;-75
2022/01/03 08:27:27;;;;;;;3.58;0.65;;;27.60;83.90;;;;;;4968938;28;20033;-74
2022/01/03 08:29:54;;;;;;;2.40;0.40;;;27.40;84.30;;;;;;4968497;28;20031;-77
2022/01/03 08:32:21;;;;;;;2.50;0.47;;;27.40;84.60;;;;;;4961540;28;20145;-75
2022/01/03 08:34:50;;;;;;;3.50;0.52;;;27.40;84.70;;;;;;4969750;28;20549;-75
2022/01/03 08:37:17;;;;;;;1.60;0.60;;;27.40;84.50;;;;;;4964782;28;20134;-76
2022/01/03 08:39:44;;;;;;;1.35;0.70;;;27.30;84.30;;;;;;4960256;28;20098;-75
2022/01/03 08:42:12;;;;;;;2.92;0.40;;;27.20;84.70;;;;;;4965134;28;20122;-75
2022/01/03 08:44:39;;;;;;;2.90;0.65;;;27.10;84.90;;;;;;4967831;28;20031;-76
2022/01/03 08:47:07;;;;;;;1.45;0.73;;;27.10;85.60;;;;;;4966506;28;20022;-76
2022/01/03 08:49:35;;;;;;;1.90;0.50;;;26.90;86.50;;;;;;4955727;28;20030;-75
2022/01/03 08:52:05;;;;;;;3.80;0.98;;;26.80;87.20;;;;;;4960616;28;20034;-74
2022/01/03 08:54:34;;;;;;;5.30;0.90;;;26.80;87.20;;;;;;4969241;28;20049;-76
2022/01/03 08:57:01;;;;;;;2.90;0.57;;;26.80;87.40;;;;;;4971068;28;20547;-75
2022/01/03 08:59:29;;;;;;;1.13;0.30;;;26.80;87.60;;;;;;4980076;28;20093;-75
2022/01/03 09:01:56;;;;;;;3.40;0.57;;;26.70;88.70;;;;;;4972071;28;20082;-74
2022/01/03 09:04:24;;;;;;;4.50;0.60;;;26.60;89.30;;;;;;4969655;28;20157;-74
2022/01/03 09:06:52;;;;;;;1.95;0.40;;;26.50;90.00;;;;;;4972782;28;20038;-75
2022/01/03 09:09:20;;;;;;;3.78;0.50;;;26.40;90.20;;;;;;4958030;28;20023;-75
2022/01/03 09:11:47;;;;;;;3.72;0.82;;;26.40;90.50;;;;;;4961986;28;20070;-75
2022/01/03 09:14:15;;;;;;;3.13;0.65;;;26.30;90.70;;;;;;4961096;28;20136;-75
2022/01/03 09:16:42;;;;;;;5.03;0.60;;;26.30;90.80;;;;;;4973978;28;20051;-75
2022/01/03 09:19:10;;;;;;;6.68;1.00;;;26.20;91.20;;;;;;4965328;28;20672;-75
2022/01/03 09:21:37;;;;;;;2.17;0.80;;;26.20;91.40;;;;;;4966374;28;20046;-76
2022/01/03 09:24:20;;;;;;;2.85;0.52;;;26.00;91.70;;;;;;4966807;28;20178;-76
2022/01/03 09:29:35;;;;;;;4.93;0.57;;;25.80;92.00;;;;;;4968090;28;20030;-75
2022/01/03 09:32:02;;;;;;;3.25;0.65;;;25.80;92.20;;;;;;4964578;28;20466;-74
2022/01/03 09:34:30;;;;;;;3.88;0.80;;;25.70;92.30;;;;;;4966123;28;20023;-74
2022/01/03 09:36:57;;;;;;;3.72;0.70;;;25.70;92.40;;;;;;4967399;28;20438;-76
2022/01/03 09:39:25;;;;;;;5.00;0.68;;;25.70;92.40;;;;;;4967481;28;20014;-76
2022/01/03 09:42:05;;;;;;;3.92;0.70;;;25.70;92.40;;;;;;4963544;28;20046;-75
2022/01/03 09:44:34;;;;;;;3.13;0.70;;;25.70;92.60;;;;;;4964998;28;20113;-76
2022/01/03 09:47:04;;;;;;;7.10;1.77;;;25.60;92.70;;;;;;4970833;28;20062;-76
2022/01/03 09:49:36;;;;;;;5.68;0.40;;;25.60;92.80;;;;;;4969453;28;20035;-77
2022/01/03 09:52:06;;;;;;;5.57;0.80;;;25.60;93.10;;;;;;4982530;28;20085;-76
2022/01/03 09:54:35;;;;;;;4.85;1.05;;;25.60;93.20;;;;;;4962518;28;20026;-78
2022/01/03 09:57:05;;;;;;;3.53;1.05;;;25.60;93.20;;;;;;4969356;28;20039;-76
2022/01/03 09:59:33;;;;;;;4.70;0.93;;;25.50;93.70;;;;;;4968038;28;20590;-76
2022/01/03 10:02:03;;;;;;;6.50;1.35;;;25.30;94.00;;;;;;4970971;28;20046;-74
2022/01/03 10:04:30;;;;;;;3.75;1.23;;;25.20;94.20;;;;;;4967953;28;20031;-77
2022/01/03 10:06:58;;;;;;;6.10;0.60;;;25.20;94.30;;;;;;4973363;28;20110;-76
2022/01/03 10:09:26;;;;;;;5.03;1.10;;;25.20;94.40;;;;;;4968211;28;20097;-78
2022/01/03 10:11:53;;;;;;;3.25;1.30;;;25.20;94.50;;;;;;4962532;28;20215;-76
2022/01/03 10:14:21;;;;;;;3.60;0.68;;;25.20;94.50;;;;;;4972640;28;20031;-75
2022/01/03 10:16:49;;;;;;;2.58;0.75;;;25.10;94.80;;;;;;4974610;28;20038;-73
2022/01/03 10:19:17;;;;;;;3.30;0.65;;;25.10;95.00;;;;;;4970604;28;20117;-75
2022/01/03 10:21:49;;;;;;;3.15;0.80;;;25.00;95.20;;;;;;4974198;28;20118;-76
2022/01/03 10:24:19;;;;;;;7.88;1.10;;;25.00;95.40;;;;;;4971615;28;20046;-75
2022/01/03 10:26:53;;;;;;;3.88;1.48;;;24.90;95.80;;;;;;4974258;28;20030;-75
2022/01/03 10:29:22;;;;;;;5.43;0.97;;;24.90;95.80;;;;;;4967396;28;20026;-75
2022/01/03 10:31:57;;;;;;;5.72;1.00;;;25.10;95.60;;;;;;4969846;28;20516;-74
2022/01/03 10:34:26;;;;;;;6.70;1.10;;;25.10;95.70;;;;;;4972567;28;20054;-75
2022/01/03 10:36:56;;;;;;;5.90;1.15;;;25.00;95.90;;;;;;4974492;28;20092;-74
2022/01/03 10:39:26;;;;;;;5.32;0.90;;;24.90;96.30;;;;;;4963520;28;20038;-76
2022/01/03 10:42:21;;;;;;;4.32;1.23;;;24.80;96.60;;;;;;4971752;28;20057;-76
2022/01/03 10:44:49;;;;;;;5.78;0.95;;;24.70;96.90;;;;;;4972579;28;20027;-75
2022/01/03 10:47:31;;;;;;;5.72;1.55;;;24.60;97.10;;;;;;4969009;28;20377;-73
2022/01/03 10:49:58;;;;;;;5.43;0.93;;;24.60;97.40;;;;;;4965097;28;20540;-74
2022/01/03 10:52:30;;;;;;;4.97;2.15;;;24.60;97.60;;;;;;4975633;28;20038;-74
2022/01/03 10:55:18;;;;;;;4.78;0.70;;;24.50;97.70;;;;;;4977968;28;20053;-73
2022/01/03 10:57:58;;;;;;;2.78;0.65;;;24.50;98.10;;;;;;4972311;28;20050;-74
2022/01/03 11:00:29;;;;;;;7.78;0.85;;;24.40;98.50;;;;;;4970234;28;20054;-73
2022/01/03 11:06:02;;;;;;;6.50;1.10;;;24.30;98.90;;;;;;4961311;28;20118;-75
2022/01/03 11:11:32;;;;;;;3.53;0.90;;;24.20;99.40;;;;;;4956847;28;20086;-74
2022/01/03 11:13:59;;;;;;;5.55;1.10;;;24.20;99.60;;;;;;4968900;28;20092;-74
2022/01/03 11:16:32;;;;;;;2.38;1.05;;;24.10;99.70;;;;;;4972775;28;20027;-74
2022/01/03 11:19:00;;;;;;;6.50;1.05;;;24.10;99.90;;;;;;4967556;28;20477;-74
2022/01/03 11:21:29;;;;;;;2.70;0.90;;;24.10;99.90;;;;;;4972072;28;20042;-73
2022/01/03 11:24:09;;;;;;;4.40;1.35;;;24.00;99.90;;;;;;4961023;28;20177;-73
2022/01/03 11:26:51;;;;;;;9.20;1.20;;;24.00;99.90;;;;;;4963917;28;20042;-75
2022/01/03 11:29:19;;;;;;;7.90;1.13;;;24.00;99.90;;;;;;4968390;28;20023;-75
2022/01/03 11:31:51;;;;;;;7.82;2.05;;;23.90;99.90;;;;;;4964945;28;20023;-73
2022/01/03 11:34:24;;;;;;;6.18;1.17;;;23.80;99.90;;;;;;4967359;28;20462;-74
2022/01/03 11:36:51;;;;;;;5.78;1.02;;;23.80;99.90;;;;;;4968819;28;20023;-73
2022/01/03 11:39:22;;;;;;;6.15;1.10;;;23.80;99.90;;;;;;4967227;28;20166;-72
2022/01/03 11:41:51;;;;;;;5.40;1.58;;;23.80;99.90;;;;;;4974675;28;20042;-75
2022/01/03 11:44:18;;;;;;;6.43;1.13;;;23.70;99.90;;;;;;4965248;28;20035;-74
2022/01/03 11:46:47;;;;;;;8.38;1.70;;;23.70;99.90;;;;;;4970961;28;20467;-72
2022/01/03 11:49:17;;;;;;;5.18;1.30;;;23.80;99.90;;;;;;4968844;28;20531;-73
2022/01/03 11:51:45;;;;;;;5.75;0.88;;;23.70;99.90;;;;;;4971070;28;20358;-72
2022/01/03 11:54:17;;;;;;;5.93;0.75;;;23.70;99.90;;;;;;4971010;28;20063;-74
2022/01/03 11:56:45;;;;;;;8.40;1.35;;;23.70;99.90;;;;;;4971628;28;20077;-72
2022/01/03 12:04:42;;;;;;;8.95;1.48;;;23.80;99.90;;;;;;4972280;28;20620;-74
2022/01/03 12:07:15;;;;;;;2.30;0.77;;;23.80;99.90;;;;;;4963213;28;20031;-73
2022/01/03 12:09:54;;;;;;;4.35;1.00;;;23.80;99.90;;;;;;4964386;28;20053;-72
2022/01/03 12:12:35;;;;;;;6.80;1.15;;;23.80;99.90;;;;;;4965261;28;20506;-73
2022/01/03 12:15:04;;;;;;;5.32;1.13;;;23.70;99.90;;;;;;4961423;28;20114;-73
2022/01/03 12:17:59;;;;;;;4.38;1.02;;;23.70;99.90;;;;;;4963617;28;20035;-74
2022/01/03 12:20:45;;;;;;;7.68;1.30;;;23.60;99.90;;;;;;4961800;28;20366;-74
2022/01/03 12:23:39;;;;;;;2.33;0.73;;;23.50;99.90;;;;;;4967071;28;20059;-74
2022/01/03 12:26:14;;;;;;;3.40;1.10;;;23.50;99.90;;;;;;4977457;28;20068;-74
2022/01/03 12:29:02;;;;;;;9.52;1.38;;;23.50;99.90;;;;;;4962885;28;20034;-75
2022/01/03 12:32:08;;;;;;;8.07;0.90;;;23.40;99.90;;;;;;4968098;28;20051;-79
2022/01/03 12:34:38;;;;;;;3.83;1.33;;;23.30;99.90;;;;;;4977134;28;20457;-75
2022/01/03 12:37:20;;;;;;;3.70;1.20;;;23.20;99.90;;;;;;4972804;28;20031;-78
2022/01/03 12:40:05;;;;;;;6.95;1.38;;;23.10;99.90;;;;;;4971338;28;20070;-81
2022/01/03 12:42:48;;;;;;;5.85;1.83;;;23.00;99.90;;;;;;4955939;28;20042;-80
2022/01/03 12:45:36;;;;;;;4.32;1.00;;;23.00;99.90;;;;;;4973043;28;20027;-80
2022/01/03 12:48:15;;;;;;;5.10;1.00;;;23.00;99.90;;;;;;4960054;28;20026;-75
2022/01/03 12:50:55;;;;;;;7.43;1.55;;;22.90;99.90;;;;;;4963567;28;20029;-80
2022/01/03 12:53:27;;;;;;;3.60;1.48;;;22.90;99.90;;;;;;4963855;28;20114;-76
2022/01/03 12:55:55;;;;;;;3.90;1.77;;;22.80;99.90;;;;;;4971461;28;20026;-81
2022/01/03 12:58:23;;;;;;;4.20;0.93;;;22.80;99.90;;;;;;4964674;28;20038;-80
2022/01/03 13:00:53;;;;;;;7.28;1.45;;;22.80;99.90;;;;;;4967663;28;20042;-79
2022/01/03 13:03:43;;;;;;;3.72;1.30;;;22.70;99.90;;;;;;4974883;28;20042;-80
2022/01/03 13:06:16;;;;;;;4.78;1.30;;;22.60;99.90;;;;;;4970207;28;20019;-81
2022/01/03 13:08:49;;;;;;;3.95;1.10;;;22.60;99.90;;;;;;4959244;28;20050;-77
2022/01/03 13:11:40;;;;;;;6.45;1.13;;;22.50;99.90;;;;;;4952729;29;20034;-76
2022/01/03 13:14:20;;;;;;;9.80;1.60;;;22.50;99.90;;;;;;4965079;28;20370;-75
2022/01/03 13:16:51;;;;;;;3.25;1.02;;;22.50;99.90;;;;;;4971860;28;20034;-74
2022/01/03 13:19:26;;;;;;;2.30;0.98;;;22.50;99.90;;;;;;4969204;28;20501;-77
2022/01/03 13:22:01;;;;;;;5.57;1.25;;;22.50;99.90;;;;;;4968663;28;20137;-81
2022/01/03 13:24:34;;;;;;;9.75;1.35;;;22.50;99.90;;;;;;4975212;28;20046;-76
2022/01/03 13:27:07;;;;;;;3.65;1.27;;;22.40;99.90;;;;;;4971288;28;20038;-77
2022/01/03 13:29:39;;;;;;;6.50;1.05;;;22.50;99.90;;;;;;4981635;28;20522;-76